sensor_id;sensor_type;location;lat;lon;timestamp;temperature;humidity
45619;DHT22;31343;47.520;19.144;2023-02-27T00:02:12;2.40;96.40
45619;DHT22;31343;47.520;19.144;2023-02-27T00:04:38;2.40;96.50
45619;DHT22;31343;47.520;19.144;2023-02-27T00:07:04;2.30;96.60
45619;DHT22;31343;47.520;19.144;2023-02-27T00:09:31;2.30;96.80
45619;DHT22;31343;47.520;19.144;2023-02-27T00:11:58;2.20;96.70
45619;DHT22;31343;47.520;19.144;2023-02-27T00:14:23;2.20;96.80
45619;DHT22;31343;47.520;19.144;2023-02-27T00:16:49;2.20;96.80
45619;DHT22;31343;47.520;19.144;2023-02-27T00:19:15;2.20;96.90
45619;DHT22;31343;47.520;19.144;2023-02-27T00:21:41;2.20;96.90
45619;DHT22;31343;47.520;19.144;2023-02-27T00:24:09;2.20;97.10
45619;DHT22;31343;47.520;19.144;2023-02-27T00:26:35;2.10;97.10
45619;DHT22;31343;47.520;19.144;2023-02-27T00:29:03;2.10;97.20
45619;DHT22;31343;47.520;19.144;2023-02-27T00:31:29;2.10;97.20
45619;DHT22;31343;47.520;19.144;2023-02-27T00:33:54;2.10;97.00
45619;DHT22;31343;47.520;19.144;2023-02-27T00:36:20;2.00;97.20
45619;DHT22;31343;47.520;19.144;2023-02-27T00:38:46;2.00;97.30
45619;DHT22;31343;47.520;19.144;2023-02-27T00:41:12;1.90;97.30
45619;DHT22;31343;47.520;19.144;2023-02-27T00:43:37;2.00;97.40
45619;DHT22;31343;47.520;19.144;2023-02-27T00:46:03;2.00;97.60
45619;DHT22;31343;47.520;19.144;2023-02-27T00:48:30;1.90;97.40
45619;DHT22;31343;47.520;19.144;2023-02-27T00:50:55;1.90;97.50
45619;DHT22;31343;47.520;19.144;2023-02-27T00:53:21;1.70;97.30
45619;DHT22;31343;47.520;19.144;2023-02-27T00:55:48;1.70;97.40
45619;DHT22;31343;47.520;19.144;2023-02-27T00:58:13;1.70;97.60
45619;DHT22;31343;47.520;19.144;2023-02-27T01:00:39;1.70;97.60
45619;DHT22;31343;47.520;19.144;2023-02-27T01:03:05;1.70;97.60
45619;DHT22;31343;47.520;19.144;2023-02-27T01:05:31;1.70;97.60
45619;DHT22;31343;47.520;19.144;2023-02-27T01:07:56;1.80;97.60
45619;DHT22;31343;47.520;19.144;2023-02-27T01:10:22;1.70;97.60
45619;DHT22;31343;47.520;19.144;2023-02-27T01:12:49;1.70;97.70
45619;DHT22;31343;47.520;19.144;2023-02-27T01:15:15;1.70;98.10
45619;DHT22;31343;47.520;19.144;2023-02-27T01:17:41;1.70;97.90
45619;DHT22;31343;47.520;19.144;2023-02-27T01:20:09;1.80;98.10
45619;DHT22;31343;47.520;19.144;2023-02-27T01:22:35;1.70;98.30
45619;DHT22;31343;47.520;19.144;2023-02-27T01:25:01;1.70;98.60
45619;DHT22;31343;47.520;19.144;2023-02-27T01:27:27;1.70;98.70
45619;DHT22;31343;47.520;19.144;2023-02-27T01:29:53;1.60;99.00
45619;DHT22;31343;47.520;19.144;2023-02-27T01:32:18;1.60;99.00
45619;DHT22;31343;47.520;19.144;2023-02-27T01:34:44;1.70;99.00
45619;DHT22;31343;47.520;19.144;2023-02-27T01:37:10;1.60;99.00
45619;DHT22;31343;47.520;19.144;2023-02-27T01:39:36;1.60;99.20
45619;DHT22;31343;47.520;19.144;2023-02-27T01:42:02;1.60;99.20
45619;DHT22;31343;47.520;19.144;2023-02-27T01:44:29;1.60;99.20
45619;DHT22;31343;47.520;19.144;2023-02-27T01:46:55;1.60;98.90
45619;DHT22;31343;47.520;19.144;2023-02-27T01:49:28;1.60;99.00
45619;DHT22;31343;47.520;19.144;2023-02-27T01:52:01;1.70;99.10
45619;DHT22;31343;47.520;19.144;2023-02-27T01:54:39;1.80;98.60
45619;DHT22;31343;47.520;19.144;2023-02-27T01:57:06;1.70;98.80
45619;DHT22;31343;47.520;19.144;2023-02-27T01:59:34;1.80;98.80
45619;DHT22;31343;47.520;19.144;2023-02-27T02:02:03;1.70;98.70
45619;DHT22;31343;47.520;19.144;2023-02-27T02:04:33;1.80;98.60
45619;DHT22;31343;47.520;19.144;2023-02-27T02:07:02;1.90;98.10
45619;DHT22;31343;47.520;19.144;2023-02-27T02:09:29;1.90;97.90
45619;DHT22;31343;47.520;19.144;2023-02-27T02:11:56;1.90;97.80
45619;DHT22;31343;47.520;19.144;2023-02-27T02:14:23;1.90;97.60
45619;DHT22;31343;47.520;19.144;2023-02-27T02:31:47;2.20;96.90
45619;DHT22;31343;47.520;19.144;2023-02-27T02:35:08;2.20;96.70
45619;DHT22;31343;47.520;19.144;2023-02-27T02:37:54;2.30;96.50
45619;DHT22;31343;47.520;19.144;2023-02-27T02:40:48;2.30;96.60
45619;DHT22;31343;47.520;19.144;2023-02-27T02:43:25;2.30;96.70
45619;DHT22;31343;47.520;19.144;2023-02-27T02:46:06;2.20;96.90
45619;DHT22;31343;47.520;19.144;2023-02-27T02:48:48;2.30;96.90
45619;DHT22;31343;47.520;19.144;2023-02-27T02:56:46;2.30;97.10
45619;DHT22;31343;47.520;19.144;2023-02-27T02:59:31;2.30;97.10
45619;DHT22;31343;47.520;19.144;2023-02-27T03:02:13;2.30;97.10
45619;DHT22;31343;47.520;19.144;2023-02-27T03:12:40;2.20;97.30
45619;DHT22;31343;47.520;19.144;2023-02-27T03:15:13;2.30;97.00
45619;DHT22;31343;47.520;19.144;2023-02-27T03:17:51;2.30;96.90
45619;DHT22;31343;47.520;19.144;2023-02-27T03:20:27;2.30;96.80
45619;DHT22;31343;47.520;19.144;2023-02-27T03:22:58;2.30;96.50
45619;DHT22;31343;47.520;19.144;2023-02-27T03:25:26;2.30;96.70
45619;DHT22;31343;47.520;19.144;2023-02-27T03:27:58;2.40;96.90
45619;DHT22;31343;47.520;19.144;2023-02-27T03:30:39;2.40;96.80
45619;DHT22;31343;47.520;19.144;2023-02-27T03:33:12;2.40;96.80
45619;DHT22;31343;47.520;19.144;2023-02-27T03:35:56;2.30;96.80
45619;DHT22;31343;47.520;19.144;2023-02-27T03:38:52;2.30;96.60
45619;DHT22;31343;47.520;19.144;2023-02-27T03:46:46;2.30;96.40
45619;DHT22;31343;47.520;19.144;2023-02-27T03:49:11;2.30;96.20
45619;DHT22;31343;47.520;19.144;2023-02-27T03:51:37;2.30;95.90
45619;DHT22;31343;47.520;19.144;2023-02-27T03:54:23;2.40;96.00
45619;DHT22;31343;47.520;19.144;2023-02-27T03:57:02;2.40;95.90
45619;DHT22;31343;47.520;19.144;2023-02-27T03:59:30;2.40;95.70
45619;DHT22;31343;47.520;19.144;2023-02-27T04:01:58;2.40;95.40
45619;DHT22;31343;47.520;19.144;2023-02-27T04:04:27;2.30;95.60
45619;DHT22;31343;47.520;19.144;2023-02-27T04:06:56;2.40;95.40
45619;DHT22;31343;47.520;19.144;2023-02-27T04:09:48;2.40;95.30
45619;DHT22;31343;47.520;19.144;2023-02-27T04:20:26;2.50;94.70
45619;DHT22;31343;47.520;19.144;2023-02-27T04:23:01;2.50;94.50
45619;DHT22;31343;47.520;19.144;2023-02-27T04:25:46;2.50;94.50
45619;DHT22;31343;47.520;19.144;2023-02-27T04:28:44;2.50;94.40
45619;DHT22;31343;47.520;19.144;2023-02-27T04:31:29;2.40;94.50
45619;DHT22;31343;47.520;19.144;2023-02-27T04:34:03;2.50;94.80
45619;DHT22;31343;47.520;19.144;2023-02-27T04:36:40;2.60;94.50
45619;DHT22;31343;47.520;19.144;2023-02-27T04:39:09;2.50;94.30
45619;DHT22;31343;47.520;19.144;2023-02-27T04:41:51;2.50;94.40
45619;DHT22;31343;47.520;19.144;2023-02-27T04:44:20;2.50;94.60
45619;DHT22;31343;47.520;19.144;2023-02-27T04:46:47;2.50;94.20
45619;DHT22;31343;47.520;19.144;2023-02-27T04:49:36;2.50;94.30
45619;DHT22;31343;47.520;19.144;2023-02-27T04:57:11;2.50;94.30
45619;DHT22;31343;47.520;19.144;2023-02-27T04:59:43;2.40;94.40
45619;DHT22;31343;47.520;19.144;2023-02-27T05:02:22;2.50;94.50
45619;DHT22;31343;47.520;19.144;2023-02-27T05:04:53;2.40;94.30
45619;DHT22;31343;47.520;19.144;2023-02-27T05:07:24;2.30;94.50
45619;DHT22;31343;47.520;19.144;2023-02-27T05:10:07;2.30;94.80
45619;DHT22;31343;47.520;19.144;2023-02-27T05:12:43;2.40;94.80
45619;DHT22;31343;47.520;19.144;2023-02-27T05:15:20;2.40;94.90
45619;DHT22;31343;47.520;19.144;2023-02-27T05:18:01;2.30;94.90
45619;DHT22;31343;47.520;19.144;2023-02-27T05:31:50;2.40;94.70
45619;DHT22;31343;47.520;19.144;2023-02-27T05:34:28;2.40;94.50
45619;DHT22;31343;47.520;19.144;2023-02-27T05:37:01;2.40;94.40
45619;DHT22;31343;47.520;19.144;2023-02-27T05:39:29;2.40;94.50
45619;DHT22;31343;47.520;19.144;2023-02-27T05:42:06;2.40;94.60
45619;DHT22;31343;47.520;19.144;2023-02-27T05:44:38;2.40;94.70
45619;DHT22;31343;47.520;19.144;2023-02-27T05:47:12;2.40;95.10
45619;DHT22;31343;47.520;19.144;2023-02-27T05:52:10;2.40;95.00
45619;DHT22;31343;47.520;19.144;2023-02-27T05:54:50;2.50;94.80
45619;DHT22;31343;47.520;19.144;2023-02-27T05:57:56;2.40;95.00
45619;DHT22;31343;47.520;19.144;2023-02-27T06:00:49;2.40;94.90
45619;DHT22;31343;47.520;19.144;2023-02-27T06:03:16;2.50;94.90
45619;DHT22;31343;47.520;19.144;2023-02-27T06:05:43;2.50;94.90
45619;DHT22;31343;47.520;19.144;2023-02-27T06:08:10;2.50;94.80
45619;DHT22;31343;47.520;19.144;2023-02-27T06:10:36;2.40;94.90
45619;DHT22;31343;47.520;19.144;2023-02-27T06:13:03;2.40;94.90
45619;DHT22;31343;47.520;19.144;2023-02-27T06:15:29;2.50;95.00
45619;DHT22;31343;47.520;19.144;2023-02-27T06:17:55;2.50;95.00
45619;DHT22;31343;47.520;19.144;2023-02-27T06:20:21;2.60;94.80
45619;DHT22;31343;47.520;19.144;2023-02-27T06:22:46;2.60;94.70
45619;DHT22;31343;47.520;19.144;2023-02-27T06:25:12;2.50;94.90
45619;DHT22;31343;47.520;19.144;2023-02-27T06:27:38;2.60;95.10
45619;DHT22;31343;47.520;19.144;2023-02-27T06:30:05;2.60;94.90
45619;DHT22;31343;47.520;19.144;2023-02-27T06:32:33;2.70;94.60
45619;DHT22;31343;47.520;19.144;2023-02-27T06:34:59;2.70;94.40
45619;DHT22;31343;47.520;19.144;2023-02-27T06:37:25;2.80;94.50
45619;DHT22;31343;47.520;19.144;2023-02-27T06:39:50;2.80;94.20
45619;DHT22;31343;47.520;19.144;2023-02-27T06:42:16;2.80;94.40
45619;DHT22;31343;47.520;19.144;2023-02-27T06:44:42;2.90;94.20
45619;DHT22;31343;47.520;19.144;2023-02-27T06:47:08;3.00;94.20
45619;DHT22;31343;47.520;19.144;2023-02-27T06:49:34;3.10;94.00
45619;DHT22;31343;47.520;19.144;2023-02-27T06:52:00;3.20;93.80
45619;DHT22;31343;47.520;19.144;2023-02-27T06:54:25;3.30;93.60
45619;DHT22;31343;47.520;19.144;2023-02-27T06:56:51;3.40;93.40
45619;DHT22;31343;47.520;19.144;2023-02-27T06:59:17;3.50;92.80
45619;DHT22;31343;47.520;19.144;2023-02-27T07:01:43;3.60;92.20
45619;DHT22;31343;47.520;19.144;2023-02-27T07:04:17;3.60;91.90
45619;DHT22;31343;47.520;19.144;2023-02-27T07:06:43;3.70;92.10
45619;DHT22;31343;47.520;19.144;2023-02-27T07:09:09;3.80;92.00
45619;DHT22;31343;47.520;19.144;2023-02-27T07:11:35;3.90;91.70
45619;DHT22;31343;47.520;19.144;2023-02-27T07:14:00;3.80;91.30
45619;DHT22;31343;47.520;19.144;2023-02-27T07:16:26;4.00;91.20
45619;DHT22;31343;47.520;19.144;2023-02-27T07:18:52;4.00;90.70
45619;DHT22;31343;47.520;19.144;2023-02-27T07:21:17;4.20;90.60
45619;DHT22;31343;47.520;19.144;2023-02-27T07:23:43;4.30;90.10
45619;DHT22;31343;47.520;19.144;2023-02-27T07:26:09;4.50;90.40
45619;DHT22;31343;47.520;19.144;2023-02-27T07:28:35;4.60;89.60
45619;DHT22;31343;47.520;19.144;2023-02-27T07:31:01;4.90;89.50
45619;DHT22;31343;47.520;19.144;2023-02-27T07:33:27;5.20;87.90
45619;DHT22;31343;47.520;19.144;2023-02-27T07:35:52;5.30;87.40
45619;DHT22;31343;47.520;19.144;2023-02-27T07:38:18;5.60;86.10
45619;DHT22;31343;47.520;19.144;2023-02-27T07:40:47;5.50;84.60
45619;DHT22;31343;47.520;19.144;2023-02-27T07:43:13;5.40;85.40
45619;DHT22;31343;47.520;19.144;2023-02-27T07:45:38;5.30;85.70
45619;DHT22;31343;47.520;19.144;2023-02-27T07:48:05;5.10;86.10
45619;DHT22;31343;47.520;19.144;2023-02-27T07:50:30;5.30;86.20
45619;DHT22;31343;47.520;19.144;2023-02-27T07:52:56;5.30;84.90
45619;DHT22;31343;47.520;19.144;2023-02-27T07:55:23;5.40;85.30
45619;DHT22;31343;47.520;19.144;2023-02-27T07:57:48;5.70;85.20
45619;DHT22;31343;47.520;19.144;2023-02-27T08:00:14;6.10;83.60
45619;DHT22;31343;47.520;19.144;2023-02-27T08:02:40;6.10;82.10
45619;DHT22;31343;47.520;19.144;2023-02-27T08:05:07;6.00;83.60
45619;DHT22;31343;47.520;19.144;2023-02-27T08:07:33;6.40;82.10
45619;DHT22;31343;47.520;19.144;2023-02-27T08:09:58;6.50;81.60
45619;DHT22;31343;47.520;19.144;2023-02-27T08:12:24;6.60;81.10
45619;DHT22;31343;47.520;19.144;2023-02-27T08:14:50;6.50;80.70
45619;DHT22;31343;47.520;19.144;2023-02-27T08:17:16;6.60;80.30
45619;DHT22;31343;47.520;19.144;2023-02-27T08:19:42;6.50;80.20
45619;DHT22;31343;47.520;19.144;2023-02-27T08:22:08;6.40;81.30
45619;DHT22;31343;47.520;19.144;2023-02-27T08:24:34;6.40;80.30
45619;DHT22;31343;47.520;19.144;2023-02-27T08:26:59;6.20;80.40
45619;DHT22;31343;47.520;19.144;2023-02-27T08:29:25;6.10;80.90
45619;DHT22;31343;47.520;19.144;2023-02-27T08:31:52;6.00;80.80
45619;DHT22;31343;47.520;19.144;2023-02-27T08:34:18;5.80;79.90
45619;DHT22;31343;47.520;19.144;2023-02-27T08:36:43;5.70;80.40
45619;DHT22;31343;47.520;19.144;2023-02-27T08:39:09;5.50;80.40
45619;DHT22;31343;47.520;19.144;2023-02-27T08:41:35;5.40;82.60
45619;DHT22;31343;47.520;19.144;2023-02-27T08:44:01;5.30;83.00
45619;DHT22;31343;47.520;19.144;2023-02-27T08:46:27;5.30;82.20
45619;DHT22;31343;47.520;19.144;2023-02-27T08:48:52;5.30;83.10
45619;DHT22;31343;47.520;19.144;2023-02-27T08:51:19;5.30;82.90
45619;DHT22;31343;47.520;19.144;2023-02-27T08:53:44;5.30;83.10
45619;DHT22;31343;47.520;19.144;2023-02-27T08:56:10;5.30;82.30
45619;DHT22;31343;47.520;19.144;2023-02-27T08:58:36;5.30;83.80
45619;DHT22;31343;47.520;19.144;2023-02-27T09:01:02;5.30;83.20
45619;DHT22;31343;47.520;19.144;2023-02-27T09:03:28;5.40;83.70
45619;DHT22;31343;47.520;19.144;2023-02-27T09:05:54;5.00;81.50
45619;DHT22;31343;47.520;19.144;2023-02-27T09:08:21;5.10;84.20
45619;DHT22;31343;47.520;19.144;2023-02-27T09:10:47;5.30;83.80
45619;DHT22;31343;47.520;19.144;2023-02-27T09:13:14;5.40;83.70
45619;DHT22;31343;47.520;19.144;2023-02-27T09:15:40;5.40;82.60
45619;DHT22;31343;47.520;19.144;2023-02-27T09:18:06;5.50;82.80
45619;DHT22;31343;47.520;19.144;2023-02-27T09:20:33;5.60;83.10
45619;DHT22;31343;47.520;19.144;2023-02-27T09:23:03;5.80;82.20
45619;DHT22;31343;47.520;19.144;2023-02-27T09:25:28;5.90;82.20
45619;DHT22;31343;47.520;19.144;2023-02-27T09:27:55;5.90;81.00
45619;DHT22;31343;47.520;19.144;2023-02-27T09:30:21;5.90;80.40
45619;DHT22;31343;47.520;19.144;2023-02-27T09:32:48;5.80;80.50
45619;DHT22;31343;47.520;19.144;2023-02-27T09:35:14;6.00;81.70
45619;DHT22;31343;47.520;19.144;2023-02-27T09:37:41;6.00;81.00
45619;DHT22;31343;47.520;19.144;2023-02-27T09:40:10;6.00;81.40
45619;DHT22;31343;47.520;19.144;2023-02-27T09:42:41;6.10;82.00
45619;DHT22;31343;47.520;19.144;2023-02-27T09:45:26;6.20;80.90
45619;DHT22;31343;47.520;19.144;2023-02-27T09:50:40;6.20;78.40
45619;DHT22;31343;47.520;19.144;2023-02-27T09:53:32;5.90;78.60
45619;DHT22;31343;47.520;19.144;2023-02-27T09:56:21;6.00;80.30
45619;DHT22;31343;47.520;19.144;2023-02-27T09:59:22;6.20;80.40
45619;DHT22;31343;47.520;19.144;2023-02-27T10:04:35;6.90;79.80
45619;DHT22;31343;47.520;19.144;2023-02-27T10:07:05;7.00;78.50
45619;DHT22;31343;47.520;19.144;2023-02-27T10:09:53;7.00;77.70
45619;DHT22;31343;47.520;19.144;2023-02-27T10:17:37;7.00;76.60
45619;DHT22;31343;47.520;19.144;2023-02-27T10:20:15;7.00;77.00
45619;DHT22;31343;47.520;19.144;2023-02-27T10:22:45;7.30;76.90
45619;DHT22;31343;47.520;19.144;2023-02-27T10:25:15;7.40;77.00
45619;DHT22;31343;47.520;19.144;2023-02-27T10:27:45;7.40;75.80
45619;DHT22;31343;47.520;19.144;2023-02-27T10:30:22;7.30;77.20
45619;DHT22;31343;47.520;19.144;2023-02-27T10:32:53;7.40;77.70
45619;DHT22;31343;47.520;19.144;2023-02-27T10:35:38;7.50;76.50
45619;DHT22;31343;47.520;19.144;2023-02-27T10:38:13;7.70;76.60
45619;DHT22;31343;47.520;19.144;2023-02-27T10:40:42;7.60;75.80
45619;DHT22;31343;47.520;19.144;2023-02-27T10:43:12;7.80;76.60
45619;DHT22;31343;47.520;19.144;2023-02-27T10:45:39;8.00;76.10
45619;DHT22;31343;47.520;19.144;2023-02-27T10:48:05;8.10;75.30
45619;DHT22;31343;47.520;19.144;2023-02-27T10:50:34;8.30;74.40
45619;DHT22;31343;47.520;19.144;2023-02-27T10:53:03;8.50;74.00
45619;DHT22;31343;47.520;19.144;2023-02-27T10:55:33;8.40;73.10
45619;DHT22;31343;47.520;19.144;2023-02-27T10:58:01;7.60;72.70
45619;DHT22;31343;47.520;19.144;2023-02-27T11:00:42;7.30;75.00
45619;DHT22;31343;47.520;19.144;2023-02-27T11:03:22;7.30;74.00
45619;DHT22;31343;47.520;19.144;2023-02-27T11:05:53;7.60;74.70
45619;DHT22;31343;47.520;19.144;2023-02-27T11:08:27;7.60;75.80
45619;DHT22;31343;47.520;19.144;2023-02-27T11:11:08;7.80;73.00
45619;DHT22;31343;47.520;19.144;2023-02-27T11:13:42;7.90;73.90
45619;DHT22;31343;47.520;19.144;2023-02-27T11:16:16;8.20;74.10
45619;DHT22;31343;47.520;19.144;2023-02-27T11:18:44;8.30;73.90
45619;DHT22;31343;47.520;19.144;2023-02-27T11:21:14;8.50;73.10
45619;DHT22;31343;47.520;19.144;2023-02-27T11:24:01;8.70;72.20
45619;DHT22;31343;47.520;19.144;2023-02-27T11:26:37;8.90;71.60
45619;DHT22;31343;47.520;19.144;2023-02-27T11:31:30;9.30;71.20
45619;DHT22;31343;47.520;19.144;2023-02-27T11:33:57;8.90;71.80
45619;DHT22;31343;47.520;19.144;2023-02-27T11:36:45;8.60;72.50
45619;DHT22;31343;47.520;19.144;2023-02-27T11:39:30;8.50;72.10
45619;DHT22;31343;47.520;19.144;2023-02-27T11:42:06;8.40;73.00
45619;DHT22;31343;47.520;19.144;2023-02-27T11:44:33;8.20;72.00
45619;DHT22;31343;47.520;19.144;2023-02-27T11:47:24;8.10;71.80
45619;DHT22;31343;47.520;19.144;2023-02-27T11:50:21;8.00;73.20
45619;DHT22;31343;47.520;19.144;2023-02-27T11:55:40;8.70;71.60
45619;DHT22;31343;47.520;19.144;2023-02-27T11:58:14;8.70;71.70
45619;DHT22;31343;47.520;19.144;2023-02-27T12:00:48;9.20;71.70
45619;DHT22;31343;47.520;19.144;2023-02-27T12:03:35;9.60;69.40
45619;DHT22;31343;47.520;19.144;2023-02-27T12:06:29;10.00;69.10
45619;DHT22;31343;47.520;19.144;2023-02-27T12:09:03;10.60;68.10
45619;DHT22;31343;47.520;19.144;2023-02-27T12:11:37;10.70;68.50
45619;DHT22;31343;47.520;19.144;2023-02-27T12:19:17;10.70;66.40
45619;DHT22;31343;47.520;19.144;2023-02-27T12:21:51;11.10;66.90
45619;DHT22;31343;47.520;19.144;2023-02-27T12:26:54;11.60;65.40
45619;DHT22;31343;47.520;19.144;2023-02-27T12:29:32;11.50;63.50
45619;DHT22;31343;47.520;19.144;2023-02-27T12:37:31;11.60;64.00
45619;DHT22;31343;47.520;19.144;2023-02-27T12:40:03;11.40;65.40
45619;DHT22;31343;47.520;19.144;2023-02-27T12:50:52;10.60;66.00
45619;DHT22;31343;47.520;19.144;2023-02-27T12:53:36;10.70;66.10
45619;DHT22;31343;47.520;19.144;2023-02-27T12:56:18;10.50;65.70
45619;DHT22;31343;47.520;19.144;2023-02-27T13:01:52;10.50;66.10
45619;DHT22;31343;47.520;19.144;2023-02-27T13:04:36;10.80;65.10
45619;DHT22;31343;47.520;19.144;2023-02-27T13:07:52;10.90;64.40
45619;DHT22;31343;47.520;19.144;2023-02-27T13:09:58;11.10;65.50
45619;DHT22;31343;47.520;19.144;2023-02-27T13:12:50;11.10;64.30
45619;DHT22;31343;47.520;19.144;2023-02-27T13:15:45;11.00;64.50
45619;DHT22;31343;47.520;19.144;2023-02-27T13:27:15;11.00;64.80
45619;DHT22;31343;47.520;19.144;2023-02-27T13:29:51;10.40;64.90
45619;DHT22;31343;47.520;19.144;2023-02-27T13:32:34;10.00;66.20
45619;DHT22;31343;47.520;19.144;2023-02-27T13:37:58;9.50;67.90
45619;DHT22;31343;47.520;19.144;2023-02-27T13:40:37;9.50;68.10
45619;DHT22;31343;47.520;19.144;2023-02-27T13:43:33;9.30;67.80
45619;DHT22;31343;47.520;19.144;2023-02-27T13:46:42;9.40;67.10
45619;DHT22;31343;47.520;19.144;2023-02-27T13:48:50;9.10;68.00
45619;DHT22;31343;47.520;19.144;2023-02-27T13:59:34;7.20;69.90
45619;DHT22;31343;47.520;19.144;2023-02-27T14:07:13;7.90;72.00
45619;DHT22;31343;47.520;19.144;2023-02-27T14:09:44;8.10;72.10
45619;DHT22;31343;47.520;19.144;2023-02-27T14:12:32;8.10;71.90
45619;DHT22;31343;47.520;19.144;2023-02-27T14:15:00;8.20;71.10
45619;DHT22;31343;47.520;19.144;2023-02-27T14:25:37;8.60;70.40
45619;DHT22;31343;47.520;19.144;2023-02-27T14:28:09;8.70;68.80
45619;DHT22;31343;47.520;19.144;2023-02-27T14:30:43;8.70;70.40
45619;DHT22;31343;47.520;19.144;2023-02-27T14:33:18;8.60;70.10
45619;DHT22;31343;47.520;19.144;2023-02-27T14:35:45;8.50;69.60
45619;DHT22;31343;47.520;19.144;2023-02-27T14:38:14;8.40;70.00
45619;DHT22;31343;47.520;19.144;2023-02-27T14:41:35;8.40;69.70
45619;DHT22;31343;47.520;19.144;2023-02-27T14:43:41;8.50;69.00
45619;DHT22;31343;47.520;19.144;2023-02-27T14:46:36;8.50;68.00
45619;DHT22;31343;47.520;19.144;2023-02-27T14:49:06;8.20;68.20
45619;DHT22;31343;47.520;19.144;2023-02-27T14:51:41;7.80;68.50
45619;DHT22;31343;47.520;19.144;2023-02-27T14:54:18;7.30;69.20
45619;DHT22;31343;47.520;19.144;2023-02-27T14:57:05;7.20;70.70
45619;DHT22;31343;47.520;19.144;2023-02-27T15:02:22;7.30;71.20
45619;DHT22;31343;47.520;19.144;2023-02-27T15:07:29;7.40;70.30
45619;DHT22;31343;47.520;19.144;2023-02-27T15:09:57;7.30;70.40
45619;DHT22;31343;47.520;19.144;2023-02-27T15:12:24;7.20;70.80
45619;DHT22;31343;47.520;19.144;2023-02-27T15:14:54;7.20;71.70
45619;DHT22;31343;47.520;19.144;2023-02-27T15:17:50;7.10;72.00
45619;DHT22;31343;47.520;19.144;2023-02-27T15:20:35;7.20;72.80
45619;DHT22;31343;47.520;19.144;2023-02-27T15:23:22;7.20;71.60
45619;DHT22;31343;47.520;19.144;2023-02-27T15:25:49;7.20;71.90
45619;DHT22;31343;47.520;19.144;2023-02-27T15:28:25;7.00;71.20
45619;DHT22;31343;47.520;19.144;2023-02-27T15:30:53;6.90;71.60
45619;DHT22;31343;47.520;19.144;2023-02-27T15:33:26;6.70;71.90
45619;DHT22;31343;47.520;19.144;2023-02-27T15:35:53;6.60;72.40
45619;DHT22;31343;47.520;19.144;2023-02-27T15:38:31;6.60;73.10
45619;DHT22;31343;47.520;19.144;2023-02-27T15:40:58;6.60;72.90
45619;DHT22;31343;47.520;19.144;2023-02-27T15:43:26;6.50;72.40
45619;DHT22;31343;47.520;19.144;2023-02-27T15:45:54;6.40;72.60
45619;DHT22;31343;47.520;19.144;2023-02-27T15:48:20;6.40;73.90
45619;DHT22;31343;47.520;19.144;2023-02-27T15:51:12;6.40;74.20
45619;DHT22;31343;47.520;19.144;2023-02-27T15:53:47;6.30;73.70
45619;DHT22;31343;47.520;19.144;2023-02-27T15:56:13;6.30;74.10
45619;DHT22;31343;47.520;19.144;2023-02-27T15:58:49;6.20;73.90
45619;DHT22;31343;47.520;19.144;2023-02-27T16:01:20;6.20;74.40
45619;DHT22;31343;47.520;19.144;2023-02-27T16:03:49;6.10;75.30
45619;DHT22;31343;47.520;19.144;2023-02-27T16:06:28;6.10;74.80
45619;DHT22;31343;47.520;19.144;2023-02-27T16:09:03;5.90;75.00
45619;DHT22;31343;47.520;19.144;2023-02-27T16:11:35;5.70;75.50
45619;DHT22;31343;47.520;19.144;2023-02-27T16:14:02;5.70;76.50
45619;DHT22;31343;47.520;19.144;2023-02-27T16:16:32;5.70;76.40
45619;DHT22;31343;47.520;19.144;2023-02-27T16:19:26;5.60;75.90
45619;DHT22;31343;47.520;19.144;2023-02-27T16:22:03;5.50;76.10
45619;DHT22;31343;47.520;19.144;2023-02-27T16:24:31;5.30;76.30
45619;DHT22;31343;47.520;19.144;2023-02-27T16:26:58;5.30;76.80
45619;DHT22;31343;47.520;19.144;2023-02-27T16:31:57;5.30;77.80
45619;DHT22;31343;47.520;19.144;2023-02-27T16:34:37;5.20;77.90
45619;DHT22;31343;47.520;19.144;2023-02-27T16:37:22;5.20;77.70
45619;DHT22;31343;47.520;19.144;2023-02-27T16:39:49;5.10;78.40
45619;DHT22;31343;47.520;19.144;2023-02-27T16:42:16;5.10;78.90
45619;DHT22;31343;47.520;19.144;2023-02-27T16:44:42;5.10;78.60
45619;DHT22;31343;47.520;19.144;2023-02-27T16:47:08;5.00;79.00
45619;DHT22;31343;47.520;19.144;2023-02-27T16:49:34;5.00;80.00
45619;DHT22;31343;47.520;19.144;2023-02-27T16:52:00;5.00;80.00
45619;DHT22;31343;47.520;19.144;2023-02-27T16:54:27;5.00;79.50
45619;DHT22;31343;47.520;19.144;2023-02-27T16:56:53;4.90;80.00
45619;DHT22;31343;47.520;19.144;2023-02-27T17:01:52;4.80;80.90
45619;DHT22;31343;47.520;19.144;2023-02-27T17:04:18;4.70;80.60
45619;DHT22;31343;47.520;19.144;2023-02-27T17:06:43;4.60;80.60
45619;DHT22;31343;47.520;19.144;2023-02-27T17:09:12;4.50;80.10
45619;DHT22;31343;47.520;19.144;2023-02-27T17:11:38;4.40;80.20
45619;DHT22;31343;47.520;19.144;2023-02-27T17:14:04;4.40;80.20
45619;DHT22;31343;47.520;19.144;2023-02-27T17:16:30;4.40;80.50
45619;DHT22;31343;47.520;19.144;2023-02-27T17:18:56;4.40;81.40
45619;DHT22;31343;47.520;19.144;2023-02-27T17:21:22;4.40;81.10
45619;DHT22;31343;47.520;19.144;2023-02-27T17:23:47;4.40;81.60
45619;DHT22;31343;47.520;19.144;2023-02-27T17:26:13;4.40;81.30
45619;DHT22;31343;47.520;19.144;2023-02-27T17:28:39;4.30;83.10
45619;DHT22;31343;47.520;19.144;2023-02-27T17:31:12;4.30;82.80
45619;DHT22;31343;47.520;19.144;2023-02-27T17:33:48;4.20;82.80
45619;DHT22;31343;47.520;19.144;2023-02-27T17:36:14;4.20;84.10
45619;DHT22;31343;47.520;19.144;2023-02-27T17:39:09;4.10;84.30
45619;DHT22;31343;47.520;19.144;2023-02-27T17:42:12;4.00;84.10
45619;DHT22;31343;47.520;19.144;2023-02-27T17:44:57;4.10;84.60
45619;DHT22;31343;47.520;19.144;2023-02-27T17:47:22;4.00;85.50
45619;DHT22;31343;47.520;19.144;2023-02-27T17:49:48;3.90;86.30
45619;DHT22;31343;47.520;19.144;2023-02-27T17:52:14;3.80;86.10
45619;DHT22;31343;47.520;19.144;2023-02-27T17:54:39;3.80;86.80
45619;DHT22;31343;47.520;19.144;2023-02-27T17:57:05;3.70;87.50
45619;DHT22;31343;47.520;19.144;2023-02-27T17:59:33;3.60;87.20
45619;DHT22;31343;47.520;19.144;2023-02-27T18:02:00;3.50;88.30
45619;DHT22;31343;47.520;19.144;2023-02-27T18:04:25;3.50;88.90
45619;DHT22;31343;47.520;19.144;2023-02-27T18:06:51;3.40;89.40
45619;DHT22;31343;47.520;19.144;2023-02-27T18:09:17;3.20;89.80
45619;DHT22;31343;47.520;19.144;2023-02-27T18:11:43;2.80;88.00
45619;DHT22;31343;47.520;19.144;2023-02-27T18:14:09;2.80;88.40
45619;DHT22;31343;47.520;19.144;2023-02-27T18:16:34;2.70;88.70
45619;DHT22;31343;47.520;19.144;2023-02-27T18:19:02;2.80;88.90
45619;DHT22;31343;47.520;19.144;2023-02-27T18:21:28;2.60;89.50
45619;DHT22;31343;47.520;19.144;2023-02-27T18:23:54;2.50;89.80